Time;durP1;ratioP1;P1;durP2;ratioP2;P2;SDS_P1;SDS_P2;PMS_P1;PMS_P2;Temp;Humidity;BMP_temperature;BMP_pressure;BME280_temperature;BME280_humidity;BME280_pressure;Samples;Min_cycle;Max_cycle;Signal;HPM_P1;HPM_P2
2022/11/13 00:02:37;;;;;;;;;;;;;;;;;;5112587;28;20064;-58
2022/11/13 00:05:21;;;;;;;;;;;;;;;;;;5110561;28;19926;-58
2022/11/13 00:08:05;;;;;;;;;;;;;;;;;;5100163;28;20002;-58
2022/11/13 00:10:50;;;;;;;;;;;;;;;;;;5114883;28;19938;-57
2022/11/13 00:13:34;;;;;;;;;;;;;;;;;;5113511;28;19918;-58
2022/11/13 00:16:18;;;;;;;;;;;;;;;;;;5111866;27;19935;-58
2022/11/13 00:19:02;;;;;;;;;;;;;;;;;;5114372;28;19918;-58
2022/11/13 00:21:46;;;;;;;;;;;;;;;;;;5114349;28;19918;-58
2022/11/13 00:24:30;;;;;;;;;;;;;;;;;;5114233;28;19956;-60
2022/11/13 00:27:14;;;;;;;;;;;;;;;;;;5113679;28;19918;-59
2022/11/13 00:29:58;;;;;;;;;;;;;;;;;;5113551;28;19919;-58
2022/11/13 00:32:43;;;;;;;;;;;;;;;;;;5113322;28;20372;-58
2022/11/13 00:35:26;;;;;;;;;;;;;;;;;;5108030;27;20011;-58
2022/11/13 00:38:11;;;;;;;;;;;;;;;;;;5111171;28;20018;-59
2022/11/13 00:40:54;;;;;;;;;;;;;;;;;;5110070;28;19934;-59
2022/11/13 00:43:38;;;;;;;;;;;;;;;;;;5110491;28;20003;-59
2022/11/13 00:46:23;;;;;;;;;;;;;;;;;;5112838;28;20356;-58
2022/11/13 00:49:07;;;;;;;;;;;;;;;;;;5113374;28;20412;-58
2022/11/13 00:51:52;;;;;;;;;;;;;;;;;;5111187;28;20031;-58
2022/11/13 00:54:36;;;;;;;;;;;;;;;;;;5111446;28;20279;-58
2022/11/13 00:57:21;;;;;;;;;;;;;;;;;;5111149;28;20451;-58
2022/11/13 01:00:05;;;;;;;;;;;;;;;;;;5113148;28;19918;-58
2022/11/13 01:02:49;;;;;;;;;;;;;;;;;;5111803;28;19922;-58
2022/11/13 01:05:33;;;;;;;;;;;;;;;;;;5110631;28;19919;-58
2022/11/13 01:08:17;;;;;;;;;;;;;;;;;;5110920;28;19972;-58
2022/11/13 01:11:01;;;;;;;;;;;;;;;;;;5108442;28;19919;-58
2022/11/13 01:13:45;;;;;;;;;;;;;;;;;;5112592;28;19934;-58
2022/11/13 01:16:30;;;;;;;;;;;;;;;;;;5109478;28;19926;-58
2022/11/13 01:19:14;;;;;;;;;;;;;;;;;;5113445;28;19965;-58
2022/11/13 01:21:59;;;;;;;;;;;;;;;;;;5108574;28;20016;-58
2022/11/13 01:24:43;;;;;;;;;;;;;;;;;;5111172;28;20416;-57
2022/11/13 01:27:27;;;;;;;;;;;;;;;;;;5096256;28;20414;-58
2022/11/13 01:30:12;;;;;;;;;;;;;;;;;;5110498;28;19980;-58
2022/11/13 01:32:55;;;;;;;;;;;;;;;;;;5112750;28;19954;-58
2022/11/13 01:35:40;;;;;;;;;;;;;;;;;;5109926;28;20277;-58
2022/11/13 01:38:24;;;;;;;;;;;;;;;;;;5110027;28;20392;-58
2022/11/13 01:41:09;;;;;;;;;;;;;;;;;;5110786;28;19961;-57
2022/11/13 01:43:53;;;;;;;;;;;;;;;;;;5112345;28;19919;-58
2022/11/13 01:46:37;;;;;;;;;;;;;;;;;;5111371;28;20274;-58
2022/11/13 01:49:21;;;;;;;;;;;;;;;;;;5112663;28;20000;-58
2022/11/13 01:52:05;;;;;;;;;;;;;;;;;;5110027;28;19919;-57
2022/11/13 01:54:50;;;;;;;;;;;;;;;;;;5112573;28;20028;-57
2022/11/13 01:57:34;;;;;;;;;;;;;;;;;;5112140;28;19926;-57
2022/11/13 02:00:19;;;;;;;;;;;;;;;;;;5111767;28;20069;-58
2022/11/13 02:03:03;;;;;;;;;;;;;;;;;;5110535;28;20458;-57
2022/11/13 02:05:47;;;;;;;;;;;;;;;;;;5112853;28;19930;-58
2022/11/13 02:08:31;;;;;;;;;;;;;;;;;;5110863;28;20285;-57
2022/11/13 02:11:17;;;;;;;;;;;;;;;;;;5110677;28;19919;-57
2022/11/13 02:14:02;;;;;;;;;;;;;;;;;;5111767;28;19954;-58
2022/11/13 02:16:46;;;;;;;;;;;;;;;;;;5115830;27;20032;-58
2022/11/13 02:19:30;;;;;;;;;;;;;;;;;;5115656;28;19918;-57
2022/11/13 02:22:15;;;;;;;;;;;;;;;;;;5113608;28;20004;-58
2022/11/13 02:24:58;;;;;;;;;;;;;;;;;;5116762;28;19919;-57
2022/11/13 02:27:42;;;;;;;;;;;;;;;;;;5127301;27;19919;-57
2022/11/13 02:30:27;;;;;;;;;;;;;;;;;;5114897;28;19974;-58
2022/11/13 02:33:11;;;;;;;;;;;;;;;;;;5111045;28;19934;-58
2022/11/13 02:35:55;;;;;;;;;;;;;;;;;;5113611;27;19961;-59
2022/11/13 02:38:39;;;;;;;;;;;;;;;;;;5113476;28;19930;-58
2022/11/13 02:41:23;;;;;;;;;;;;;;;;;;5115714;27;20013;-58
2022/11/13 02:44:07;;;;;;;;;;;;;;;;;;5115010;28;19919;-58
2022/11/13 02:46:51;;;;;;;;;;;;;;;;;;5112179;27;19939;-58
2022/11/13 02:49:36;;;;;;;;;;;;;;;;;;5115473;28;19954;-58
2022/11/13 02:52:20;;;;;;;;;;;;;;;;;;5112799;28;20319;-58
2022/11/13 02:55:04;;;;;;;;;;;;;;;;;;5114957;28;19976;-58
2022/11/13 02:57:48;;;;;;;;;;;;;;;;;;5110195;28;19964;-58
2022/11/13 03:00:31;;;;;;;;;;;;;;;;;;5113283;28;19958;-58
2022/11/13 03:03:16;;;;;;;;;;;;;;;;;;5113318;28;19937;-58
2022/11/13 03:06:00;;;;;;;;;;;;;;;;;;5111460;28;19919;-59
2022/11/13 03:08:44;;;;;;;;;;;;;;;;;;5112881;28;19956;-58
2022/11/13 03:11:28;;;;;;;;;;;;;;;;;;5114318;28;19956;-58
2022/11/13 03:14:12;;;;;;;;;;;;;;;;;;5100121;28;20272;-58
2022/11/13 03:16:56;;;;;;;;;;;;;;;;;;5115421;27;20305;-58
2022/11/13 03:19:39;;;;;;;;;;;;;;;;;;5113799;28;19923;-58
2022/11/13 03:22:23;;;;;;;;;;;;;;;;;;5112195;28;19965;-59
2022/11/13 03:25:08;;;;;;;;;;;;;;;;;;5112407;28;20404;-58
2022/11/13 03:27:52;;;;;;;;;;;;;;;;;;5098411;28;20418;-58
2022/11/13 03:30:36;;;;;;;;;;;;;;;;;;5113024;28;20396;-58
2022/11/13 03:33:20;;;;;;;;;;;;;;;;;;5112708;28;19942;-58
2022/11/13 03:36:04;;;;;;;;;;;;;;;;;;5111452;27;19918;-57
2022/11/13 03:38:49;;;;;;;;;;;;;;;;;;5112726;28;20414;-57
2022/11/13 03:41:33;;;;;;;;;;;;;;;;;;5112444;27;20301;-58
2022/11/13 03:44:17;;;;;;;;;;;;;;;;;;5113879;28;20053;-58
2022/11/13 03:47:01;;;;;;;;;;;;;;;;;;5113327;27;19919;-58
2022/11/13 03:49:46;;;;;;;;;;;;;;;;;;5114008;28;19918;-58
2022/11/13 03:52:30;;;;;;;;;;;;;;;;;;5112783;28;20105;-57
2022/11/13 03:55:15;;;;;;;;;;;;;;;;;;5113049;28;20381;-58
2022/11/13 03:57:59;;;;;;;;;;;;;;;;;;5108108;28;19926;-58
2022/11/13 04:00:43;;;;;;;;;;;;;;;;;;5112148;28;19965;-58
2022/11/13 04:03:27;;;;;;;;;;;;;;;;;;5114674;28;19970;-58
2022/11/13 04:06:13;;;;;;;;;;;;;;;;;;5114130;28;19918;-57
2022/11/13 04:08:57;;;;;;;;;;;;;;;;;;5114122;28;19919;-57
2022/11/13 04:11:42;;;;;;;;;;;;;;;;;;5114052;28;19947;-58
2022/11/13 04:14:26;;;;;;;;;;;;;;;;;;5114458;28;19919;-57
2022/11/13 04:17:10;;;;;;;;;;;;;;;;;;5114037;28;19930;-57
2022/11/13 04:19:54;;;;;;;;;;;;;;;;;;5114270;28;19957;-57
2022/11/13 04:22:38;;;;;;;;;;;;;;;;;;5114138;28;19957;-58
2022/11/13 04:25:22;;;;;;;;;;;;;;;;;;5113497;28;19940;-58
2022/11/13 04:28:06;;;;;;;;;;;;;;;;;;5114992;27;19918;-58
2022/11/13 04:30:50;;;;;;;;;;;;;;;;;;5113456;28;19945;-58
2022/11/13 04:33:35;;;;;;;;;;;;;;;;;;5112419;28;19926;-58
2022/11/13 04:36:19;;;;;;;;;;;;;;;;;;5112136;28;19918;-58
2022/11/13 04:39:03;;;;;;;;;;;;;;;;;;5112583;28;19973;-58
2022/11/13 04:44:50;;;;;;;;;;;;;;;;;;5113380;28;19918;-58
2022/11/13 04:47:35;;;;;;;;;;;;;;;;;;5109982;28;20389;-60
2022/11/13 04:50:19;;;;;;;;;;;;;;;;;;5113029;28;19918;-59
2022/11/13 04:53:03;;;;;;;;;;;;;;;;;;5113682;28;19956;-60
2022/11/13 04:55:46;;;;;;;;;;;;;;;;;;5113851;28;19957;-58
2022/11/13 04:58:31;;;;;;;;;;;;;;;;;;5113492;28;19965;-56
2022/11/13 05:01:15;;;;;;;;;;;;;;;;;;5113705;28;19919;-57
2022/11/13 05:04:00;;;;;;;;;;;;;;;;;;5113559;28;20019;-57
2022/11/13 05:06:44;;;;;;;;;;;;;;;;;;5113752;28;20364;-58
2022/11/13 05:09:29;;;;;;;;;;;;;;;;;;5113595;28;20285;-57
2022/11/13 05:12:13;;;;;;;;;;;;;;;;;;5113373;28;20015;-58
2022/11/13 05:14:57;;;;;;;;;;;;;;;;;;5112770;28;19942;-58
2022/11/13 05:17:41;;;;;;;;;;;;;;;;;;5112591;28;19984;-58
2022/11/13 05:20:26;;;;;;;;;;;;;;;;;;5111806;28;19919;-58
2022/11/13 05:23:10;;;;;;;;;;;;;;;;;;5112336;28;19922;-58
2022/11/13 05:25:54;;;;;;;;;;;;;;;;;;5113080;28;19918;-58
2022/11/13 05:28:38;;;;;;;;;;;;;;;;;;5113457;28;19919;-58
2022/11/13 05:31:22;;;;;;;;;;;;;;;;;;5113021;28;20006;-58
2022/11/13 05:34:07;;;;;;;;;;;;;;;;;;5111537;28;20479;-58
2022/11/13 05:36:51;;;;;;;;;;;;;;;;;;5112332;28;19972;-58
2022/11/13 05:39:36;;;;;;;;;;;;;;;;;;5110275;28;20319;-58
2022/11/13 05:42:20;;;;;;;;;;;;;;;;;;5110879;28;19954;-58
2022/11/13 05:45:04;;;;;;;;;;;;;;;;;;5111473;28;19940;-58
2022/11/13 05:47:49;;;;;;;;;;;;;;;;;;5111990;28;19950;-56
2022/11/13 05:50:33;;;;;;;;;;;;;;;;;;5113454;28;19919;-57
2022/11/13 05:53:17;;;;;;;;;;;;;;;;;;5116488;28;19930;-57
2022/11/13 05:56:02;;;;;;;;;;;;;;;;;;5116590;28;19918;-58
2022/11/13 05:58:46;;;;;;;;;;;;;;;;;;5114536;28;20441;-57
2022/11/13 06:01:31;;;;;;;;;;;;;;;;;;5116253;28;19919;-58
2022/11/13 06:04:15;;;;;;;;;;;;;;;;;;5098160;28;19919;-58
2022/11/13 06:06:59;;;;;;;;;;;;;;;;;;5115488;28;20463;-57
2022/11/13 06:09:43;;;;;;;;;;;;;;;;;;5115758;28;19919;-58
2022/11/13 06:12:28;;;;;;;;;;;;;;;;;;5096607;28;19962;-58
2022/11/13 06:15:11;;;;;;;;;;;;;;;;;;5096488;28;20419;-58
2022/11/13 06:17:56;;;;;;;;;;;;;;;;;;5109709;28;19927;-58
2022/11/13 06:20:40;;;;;;;;;;;;;;;;;;5113362;28;19922;-58
2022/11/13 06:23:24;;;;;;;;;;;;;;;;;;5107736;28;20000;-58
2022/11/13 06:26:08;;;;;;;;;;;;;;;;;;5113244;27;19927;-58
2022/11/13 06:28:52;;;;;;;;;;;;;;;;;;5115542;28;20041;-58
2022/11/13 06:31:37;;;;;;;;;;;;;;;;;;5113196;28;19942;-58
2022/11/13 06:34:21;;;;;;;;;;;;;;;;;;5113411;28;20097;-58
2022/11/13 06:37:05;;;;;;;;;;;;;;;;;;5111619;28;19988;-59
2022/11/13 06:39:49;;;;;;;;;;;;;;;;;;5107307;28;19922;-59
2022/11/13 06:42:34;;;;;;;;;;;;;;;;;;5116334;28;19974;-59
2022/11/13 06:45:18;;;;;;;;;;;;;;;;;;5117118;27;19962;-59
2022/11/13 06:48:02;;;;;;;;;;;;;;;;;;5116787;28;19919;-59
2022/11/13 06:50:46;;;;;;;;;;;;;;;;;;5116202;27;19918;-59
2022/11/13 06:53:31;;;;;;;;;;;;;;;;;;5115597;28;19923;-59
2022/11/13 06:56:15;;;;;;;;;;;;;;;;;;5109737;27;19965;-59
2022/11/13 06:58:59;;;;;;;;;;;;;;;;;;5098787;28;19962;-59
2022/11/13 07:01:44;;;;;;;;;;;;;;;;;;5111380;27;19965;-59
2022/11/13 07:04:28;;;;;;;;;;;;;;;;;;5114905;28;19926;-58
2022/11/13 07:07:12;;;;;;;;;;;;;;;;;;5115069;28;20004;-58
2022/11/13 07:09:56;;;;;;;;;;;;;;;;;;5095949;28;19919;-58
2022/11/13 07:12:40;;;;;;;;;;;;;;;;;;5096175;28;20282;-58
2022/11/13 07:15:24;;;;;;;;;;;;;;;;;;5103788;28;20282;-59
2022/11/13 07:18:09;;;;;;;;;;;;;;;;;;5099455;28;19927;-58
2022/11/13 07:20:53;;;;;;;;;;;;;;;;;;5116379;28;20325;-58
2022/11/13 07:23:41;;;;;;;;;;;;;;;;;;5095906;28;20022;-59
2022/11/13 07:26:26;;;;;;;;;;;;;;;;;;5106929;28;19984;-59
2022/11/13 07:29:09;;;;;;;;;;;;;;;;;;5116092;28;20311;-59
2022/11/13 07:31:53;;;;;;;;;;;;;;;;;;5115703;28;19927;-58
2022/11/13 07:34:37;;;;;;;;;;;;;;;;;;5115437;28;19958;-58
2022/11/13 07:37:21;;;;;;;;;;;;;;;;;;5115579;28;19927;-58
2022/11/13 07:40:05;;;;;;;;;;;;;;;;;;5115538;28;19919;-58
2022/11/13 07:42:49;;;;;;;;;;;;;;;;;;5115952;28;19918;-58
2022/11/13 07:45:33;;;;;;;;;;;;;;;;;;5115735;28;19923;-58
2022/11/13 07:48:17;;;;;;;;;;;;;;;;;;5115229;28;19934;-58
2022/11/13 07:51:02;;;;;;;;;;;;;;;;;;5115729;28;20376;-59
2022/11/13 07:53:46;;;;;;;;;;;;;;;;;;5114956;28;19953;-58
2022/11/13 07:56:30;;;;;;;;;;;;;;;;;;5115592;28;19996;-58
2022/11/13 07:59:14;;;;;;;;;;;;;;;;;;5115148;28;20006;-58
2022/11/13 08:01:59;;;;;;;;;;;;;;;;;;5112700;28;19919;-60
2022/11/13 08:04:43;;;;;;;;;;;;;;;;;;5114011;28;20281;-60
2022/11/13 08:07:27;;;;;;;;;;;;;;;;;;5112746;28;20041;-60
2022/11/13 08:10:11;;;;;;;;;;;;;;;;;;5114825;28;19919;-58
2022/11/13 08:12:55;;;;;;;;;;;;;;;;;;5112022;28;19972;-58
2022/11/13 08:15:39;;;;;;;;;;;;;;;;;;5115420;28;20014;-58
2022/11/13 08:18:23;;;;;;;;;;;;;;;;;;5113871;28;19976;-58
2022/11/13 08:21:08;;;;;;;;;;;;;;;;;;5094841;28;20021;-60
2022/11/13 08:23:52;;;;;;;;;;;;;;;;;;5094857;28;20419;-60
2022/11/13 08:26:36;;;;;;;;;;;;;;;;;;5094833;28;20038;-60
2022/11/13 08:29:21;;;;;;;;;;;;;;;;;;5107428;28;19922;-60
2022/11/13 08:32:05;;;;;;;;;;;;;;;;;;5113795;28;19972;-60
2022/11/13 08:34:50;;;;;;;;;;;;;;;;;;5108442;28;19922;-60
2022/11/13 08:37:34;;;;;;;;;;;;;;;;;;5106437;28;19965;-59
2022/11/13 08:40:18;;;;;;;;;;;;;;;;;;5112902;28;20434;-59
2022/11/13 08:43:02;;;;;;;;;;;;;;;;;;5110171;28;19918;-59
2022/11/13 08:45:46;;;;;;;;;;;;;;;;;;5113725;28;20187;-59
2022/11/13 08:48:31;;;;;;;;;;;;;;;;;;5111875;28;19960;-59
2022/11/13 08:51:15;;;;;;;;;;;;;;;;;;5113277;28;19973;-59
2022/11/13 08:54:00;;;;;;;;;;;;;;;;;;5116973;27;19984;-60
2022/11/13 08:56:44;;;;;;;;;;;;;;;;;;5110660;28;19923;-59
2022/11/13 08:59:29;;;;;;;;;;;;;;;;;;5112454;28;19918;-59
2022/11/13 09:02:13;;;;;;;;;;;;;;;;;;5113228;28;19957;-59
2022/11/13 09:04:57;;;;;;;;;;;;;;;;;;5113418;28;19961;-59
2022/11/13 09:07:41;;;;;;;;;;;;;;;;;;5111239;28;20005;-60
2022/11/13 09:10:25;;;;;;;;;;;;;;;;;;5111880;28;19919;-59
2022/11/13 09:13:10;;;;;;;;;;;;;;;;;;5109635;28;19964;-59
2022/11/13 09:15:54;;;;;;;;;;;;;;;;;;5112936;28;19919;-59
2022/11/13 09:18:38;;;;;;;;;;;;;;;;;;5110389;28;20293;-59
2022/11/13 09:21:22;;;;;;;;;;;;;;;;;;5110811;28;20305;-59
2022/11/13 09:24:06;;;;;;;;;;;;;;;;;;5108555;28;19937;-59
2022/11/13 09:26:50;;;;;;;;;;;;;;;;;;5112873;28;19942;-60
2022/11/13 09:29:34;;;;;;;;;;;;;;;;;;5113730;28;19919;-59
2022/11/13 09:32:19;;;;;;;;;;;;;;;;;;5113901;28;19979;-59
2022/11/13 09:35:03;;;;;;;;;;;;;;;;;;5114110;28;19926;-59
2022/11/13 09:37:47;;;;;;;;;;;;;;;;;;5113847;28;19927;-60
2022/11/13 09:40:31;;;;;;;;;;;;;;;;;;5113813;28;19969;-59
2022/11/13 09:43:16;;;;;;;;;;;;;;;;;;5098709;28;19996;-60
2022/11/13 09:46:00;;;;;;;;;;;;;;;;;;5113987;28;19919;-59
2022/11/13 09:48:44;;;;;;;;;;;;;;;;;;5114088;28;20343;-60
2022/11/13 09:51:27;;;;;;;;;;;;;;;;;;5114069;28;20281;-59
2022/11/13 09:54:12;;;;;;;;;;;;;;;;;;5098570;28;20388;-59
2022/11/13 09:56:57;;;;;;;;;;;;;;;;;;5105818;28;19993;-59
2022/11/13 09:59:41;;;;;;;;;;;;;;;;;;5113363;28;20282;-59
2022/11/13 10:02:25;;;;;;;;;;;;;;;;;;5113886;28;20007;-59
2022/11/13 10:05:10;;;;;;;;;;;;;;;;;;5114041;28;20320;-59
2022/11/13 10:07:54;;;;;;;;;;;;;;;;;;5113620;28;20003;-59
2022/11/13 10:10:38;;;;;;;;;;;;;;;;;;5113937;28;19991;-59
2022/11/13 10:13:22;;;;;;;;;;;;;;;;;;5113868;28;20434;-59
2022/11/13 10:16:06;;;;;;;;;;;;;;;;;;5113893;28;19976;-59
2022/11/13 10:18:50;;;;;;;;;;;;;;;;;;5113931;28;19978;-59
2022/11/13 10:21:34;;;;;;;;;;;;;;;;;;5113829;28;19934;-59
2022/11/13 10:24:18;;;;;;;;;;;;;;;;;;5113847;28;19935;-59
2022/11/13 10:27:01;;;;;;;;;;;;;;;;;;5113723;28;20369;-59
2022/11/13 10:29:46;;;;;;;;;;;;;;;;;;5113524;28;19996;-58
2022/11/13 10:32:30;;;;;;;;;;;;;;;;;;5113382;28;19919;-59
2022/11/13 10:35:15;;;;;;;;;;;;;;;;;;5113047;28;19920;-59
2022/11/13 10:37:59;;;;;;;;;;;;;;;;;;5116312;28;20360;-59
2022/11/13 10:40:44;;;;;;;;;;;;;;;;;;5117163;28;19919;-59
2022/11/13 10:43:28;;;;;;;;;;;;;;;;;;5117100;28;19919;-59
2022/11/13 10:46:12;;;;;;;;;;;;;;;;;;5117124;28;20276;-58
2022/11/13 10:48:57;;;;;;;;;;;;;;;;;;5116989;28;19957;-58
2022/11/13 10:51:41;;;;;;;;;;;;;;;;;;5116993;28;19937;-58
2022/11/13 10:54:26;;;;;;;;;;;;;;;;;;5116993;28;19919;-58
2022/11/13 10:57:10;;;;;;;;;;;;;;;;;;5116580;28;19946;-58
2022/11/13 10:59:55;;;;;;;;;;;;;;;;;;5116714;28;20277;-58
2022/11/13 11:02:39;;;;;;;;;;;;;;;;;;5116664;28;19965;-58
2022/11/13 11:05:23;;;;;;;;;;;;;;;;;;5116600;28;19938;-58
2022/11/13 11:08:08;;;;;;;;;;;;;;;;;;5116796;28;19937;-58
2022/11/13 11:13:55;;;;;;;;;;;;;;;;;;5116487;28;20279;-58
2022/11/13 11:16:39;;;;;;;;;;;;;;;;;;5113709;28;19922;-58
2022/11/13 11:19:24;;;;;;;;;;;;;;;;;;5102077;28;19961;-58
2022/11/13 11:22:08;;;;;;;;;;;;;;;;;;5095769;28;19919;-58
2022/11/13 11:24:52;;;;;;;;;;;;;;;;;;5095913;28;19946;-58
2022/11/13 11:27:36;;;;;;;;;;;;;;;;;;5096061;28;20018;-58
2022/11/13 11:30:20;;;;;;;;;;;;;;;;;;5095489;28;19927;-58
2022/11/13 11:33:07;;;;;;;;;;;;;;;;;;5094822;28;20469;-59
2022/11/13 11:35:51;;;;;;;;;;;;;;;;;;5096036;28;19919;-59
2022/11/13 11:38:36;;;;;;;;;;;;;;;;;;5095267;28;19935;-59
2022/11/13 11:41:20;;;;;;;;;;;;;;;;;;5095751;28;19923;-59
2022/11/13 11:44:04;;;;;;;;;;;;;;;;;;5095573;28;19957;-60
2022/11/13 11:46:49;;;;;;;;;;;;;;;;;;5095624;28;19919;-59
2022/11/13 11:49:33;;;;;;;;;;;;;;;;;;5095511;28;20007;-59
2022/11/13 11:52:17;;;;;;;;;;;;;;;;;;5095434;28;19981;-58
2022/11/13 11:55:01;;;;;;;;;;;;;;;;;;5095588;28;19922;-59
2022/11/13 11:57:45;;;;;;;;;;;;;;;;;;5095176;28;20389;-59
2022/11/13 12:00:30;;;;;;;;;;;;;;;;;;5095415;28;19919;-59
2022/11/13 12:03:14;;;;;;;;;;;;;;;;;;5095214;28;19964;-59
2022/11/13 12:05:57;;;;;;;;;;;;;;;;;;5095471;28;20377;-59
2022/11/13 12:08:41;;;;;;;;;;;;;;;;;;5095166;28;20038;-59
2022/11/13 12:11:26;;;;;;;;;;;;;;;;;;5095363;28;19927;-59
2022/11/13 12:14:11;;;;;;;;;;;;;;;;;;5095461;28;20392;-59
2022/11/13 12:16:55;;;;;;;;;;;;;;;;;;5098985;28;20338;-58
2022/11/13 12:19:39;;;;;;;;;;;;;;;;;;5100194;28;20364;-59
2022/11/13 12:22:23;;;;;;;;;;;;;;;;;;5115411;28;19930;-59
2022/11/13 12:25:08;;;;;;;;;;;;;;;;;;5115393;28;19937;-59
2022/11/13 12:27:52;;;;;;;;;;;;;;;;;;5115332;28;19935;-58
2022/11/13 12:30:37;;;;;;;;;;;;;;;;;;5115017;28;19927;-59
2022/11/13 12:33:20;;;;;;;;;;;;;;;;;;5115198;28;19922;-59
2022/11/13 12:36:04;;;;;;;;;;;;;;;;;;5115136;28;19957;-59
2022/11/13 12:38:49;;;;;;;;;;;;;;;;;;5114808;28;19945;-59
2022/11/13 12:41:33;;;;;;;;;;;;;;;;;;5115073;28;20380;-59
2022/11/13 12:44:17;;;;;;;;;;;;;;;;;;5115048;28;19919;-59
2022/11/13 12:47:01;;;;;;;;;;;;;;;;;;5115018;28;19968;-59
2022/11/13 12:49:45;;;;;;;;;;;;;;;;;;5115172;28;20058;-59
2022/11/13 12:52:29;;;;;;;;;;;;;;;;;;5114805;28;19919;-59
2022/11/13 12:55:13;;;;;;;;;;;;;;;;;;5115115;28;20304;-58
2022/11/13 12:58:00;;;;;;;;;;;;;;;;;;5114517;28;19949;-59
2022/11/13 13:00:44;;;;;;;;;;;;;;;;;;5114327;28;20392;-59
2022/11/13 13:03:29;;;;;;;;;;;;;;;;;;5114777;28;19957;-59
2022/11/13 13:06:13;;;;;;;;;;;;;;;;;;5114641;28;20277;-59
2022/11/13 13:08:57;;;;;;;;;;;;;;;;;;5114710;28;20000;-59
2022/11/13 13:11:41;;;;;;;;;;;;;;;;;;5114229;28;19922;-60
2022/11/13 13:14:25;;;;;;;;;;;;;;;;;;5114752;28;19918;-59
2022/11/13 13:17:10;;;;;;;;;;;;;;;;;;5114531;28;19926;-59
2022/11/13 13:19:54;;;;;;;;;;;;;;;;;;5114506;28;19919;-59
2022/11/13 13:22:38;;;;;;;;;;;;;;;;;;5099112;28;19919;-60
2022/11/13 13:25:22;;;;;;;;;;;;;;;;;;5114403;28;19918;-59
2022/11/13 13:28:06;;;;;;;;;;;;;;;;;;5114467;28;19996;-59
2022/11/13 13:30:50;;;;;;;;;;;;;;;;;;5114017;28;19926;-59
2022/11/13 13:33:34;;;;;;;;;;;;;;;;;;5114370;28;19965;-59
2022/11/13 13:36:18;;;;;;;;;;;;;;;;;;5114416;28;19974;-58
2022/11/13 13:39:02;;;;;;;;;;;;;;;;;;5114169;28;19950;-59
2022/11/13 13:41:46;;;;;;;;;;;;;;;;;;5114225;28;19977;-59
2022/11/13 13:44:30;;;;;;;;;;;;;;;;;;5114275;28;19971;-59
2022/11/13 13:47:14;;;;;;;;;;;;;;;;;;5114170;28;19996;-59
2022/11/13 13:49:58;;;;;;;;;;;;;;;;;;5114303;28;20004;-59
2022/11/13 13:52:42;;;;;;;;;;;;;;;;;;5113907;28;19919;-59
2022/11/13 13:55:27;;;;;;;;;;;;;;;;;;5114058;28;20281;-59
2022/11/13 13:58:11;;;;;;;;;;;;;;;;;;5113947;28;19929;-59
2022/11/13 14:00:55;;;;;;;;;;;;;;;;;;5114079;28;19919;-59
2022/11/13 14:03:39;;;;;;;;;;;;;;;;;;5114173;28;19918;-59
2022/11/13 14:06:23;;;;;;;;;;;;;;;;;;5114056;28;19957;-59
2022/11/13 14:09:07;;;;;;;;;;;;;;;;;;5113971;28;19923;-59
2022/11/13 14:11:51;;;;;;;;;;;;;;;;;;5115120;28;19939;-59
2022/11/13 14:14:35;;;;;;;;;;;;;;;;;;5118114;28;19965;-59
2022/11/13 14:17:19;;;;;;;;;;;;;;;;;;5117666;28;20061;-59
2022/11/13 14:20:03;;;;;;;;;;;;;;;;;;5117860;28;19919;-59
2022/11/13 14:22:47;;;;;;;;;;;;;;;;;;5117700;28;20368;-59
2022/11/13 14:25:31;;;;;;;;;;;;;;;;;;5117873;28;19961;-60
2022/11/13 14:28:15;;;;;;;;;;;;;;;;;;5117668;28;19919;-59
2022/11/13 14:31:00;;;;;;;;;;;;;;;;;;5117148;28;20333;-59
2022/11/13 14:33:44;;;;;;;;;;;;;;;;;;5117644;28;19918;-59
2022/11/13 14:36:30;;;;;;;;;;;;;;;;;;5117221;28;19919;-59
2022/11/13 14:39:14;;;;;;;;;;;;;;;;;;5117524;28;19927;-59
2022/11/13 14:41:58;;;;;;;;;;;;;;;;;;5117295;28;20327;-59
2022/11/13 14:44:42;;;;;;;;;;;;;;;;;;5117049;28;20002;-59
2022/11/13 14:47:27;;;;;;;;;;;;;;;;;;5098602;28;20489;-59
2022/11/13 14:50:11;;;;;;;;;;;;;;;;;;5096935;28;19923;-59
2022/11/13 14:52:56;;;;;;;;;;;;;;;;;;5096836;28;20415;-58
2022/11/13 14:55:40;;;;;;;;;;;;;;;;;;5096741;28;19920;-58
2022/11/13 14:58:24;;;;;;;;;;;;;;;;;;5112878;28;19930;-58
2022/11/13 15:01:09;;;;;;;;;;;;;;;;;;5116057;28;19919;-58
2022/11/13 15:03:52;;;;;;;;;;;;;;;;;;5115546;28;19918;-58
2022/11/13 15:06:36;;;;;;;;;;;;;;;;;;5115737;28;19919;-59
2022/11/13 15:09:20;;;;;;;;;;;;;;;;;;5115501;28;19965;-58
2022/11/13 15:12:04;;;;;;;;;;;;;;;;;;5115496;28;19919;-58
2022/11/13 15:14:48;;;;;;;;;;;;;;;;;;5114256;28;19918;-58
2022/11/13 15:17:33;;;;;;;;;;;;;;;;;;5116333;28;20016;-58
2022/11/13 15:20:17;;;;;;;;;;;;;;;;;;5116737;28;19919;-58
2022/11/13 15:23:02;;;;;;;;;;;;;;;;;;5116262;28;19926;-58
2022/11/13 15:25:46;;;;;;;;;;;;;;;;;;5116643;28;19918;-59
2022/11/13 15:28:31;;;;;;;;;;;;;;;;;;5116469;28;19922;-59
2022/11/13 15:31:15;;;;;;;;;;;;;;;;;;5115996;28;19998;-59
2022/11/13 15:33:59;;;;;;;;;;;;;;;;;;5116295;28;19957;-59
2022/11/13 15:36:44;;;;;;;;;;;;;;;;;;5116155;28;19934;-59
2022/11/13 15:39:28;;;;;;;;;;;;;;;;;;5115651;28;19918;-59
2022/11/13 15:42:13;;;;;;;;;;;;;;;;;;5116178;28;19919;-59
2022/11/13 15:44:57;;;;;;;;;;;;;;;;;;5116176;28;20262;-59
2022/11/13 15:47:41;;;;;;;;;;;;;;;;;;5116097;28;20327;-59
2022/11/13 15:50:25;;;;;;;;;;;;;;;;;;5115841;28;19918;-59
2022/11/13 15:53:11;;;;;;;;;;;;;;;;;;5116183;28;19918;-59
2022/11/13 15:56:01;;;;;;;;;;;;;;;;;;5115916;28;20401;-59
2022/11/13 15:58:45;;;;;;;;;;;;;;;;;;5115545;28;19927;-59
2022/11/13 16:01:30;;;;;;;;;;;;;;;;;;5115764;28;19973;-59
2022/11/13 16:04:15;;;;;;;;;;;;;;;;;;5115880;28;20057;-59
2022/11/13 16:06:59;;;;;;;;;;;;;;;;;;5115948;28;20396;-59
2022/11/13 16:09:43;;;;;;;;;;;;;;;;;;5115249;28;19966;-59
2022/11/13 16:12:27;;;;;;;;;;;;;;;;;;5115782;28;19919;-59
2022/11/13 16:15:12;;;;;;;;;;;;;;;;;;5115134;28;20275;-59
2022/11/13 16:17:56;;;;;;;;;;;;;;;;;;5115019;28;19966;-59
2022/11/13 16:20:41;;;;;;;;;;;;;;;;;;5098543;28;19937;-59
2022/11/13 16:23:25;;;;;;;;;;;;;;;;;;5113006;28;20391;-59
2022/11/13 16:26:09;;;;;;;;;;;;;;;;;;5113419;28;19919;-59
2022/11/13 16:28:53;;;;;;;;;;;;;;;;;;5098535;28;19966;-59
2022/11/13 16:31:38;;;;;;;;;;;;;;;;;;5113519;28;19927;-59
2022/11/13 16:34:22;;;;;;;;;;;;;;;;;;5111099;28;20376;-59
2022/11/13 16:37:06;;;;;;;;;;;;;;;;;;5113100;28;19988;-58
2022/11/13 16:39:50;;;;;;;;;;;;;;;;;;5113440;28;20416;-58
2022/11/13 16:42:34;;;;;;;;;;;;;;;;;;5110790;27;19919;-57
2022/11/13 16:45:18;;;;;;;;;;;;;;;;;;5119946;27;19937;-58
2022/11/13 16:48:02;;;;;;;;;;;;;;;;;;5115493;27;19934;-59
2022/11/13 16:50:46;;;;;;;;;;;;;;;;;;5131690;27;19919;-59
2022/11/13 16:53:30;;;;;;;;;;;;;;;;;;5121725;27;19919;-59
2022/11/13 16:56:14;;;;;;;;;;;;;;;;;;5120539;27;19954;-59
2022/11/13 16:58:58;;;;;;;;;;;;;;;;;;5101684;27;19977;-59
2022/11/13 17:01:43;;;;;;;;;;;;;;;;;;5123633;27;19926;-59
2022/11/13 17:04:27;;;;;;;;;;;;;;;;;;5113672;28;20391;-59
2022/11/13 17:07:11;;;;;;;;;;;;;;;;;;5112925;27;19922;-58
2022/11/13 17:09:56;;;;;;;;;;;;;;;;;;5113723;27;19927;-59
2022/11/13 17:12:41;;;;;;;;;;;;;;;;;;5111358;27;19922;-59
2022/11/13 17:15:25;;;;;;;;;;;;;;;;;;5113449;27;19934;-59
2022/11/13 17:18:10;;;;;;;;;;;;;;;;;;5111315;27;19973;-59
2022/11/13 17:20:54;;;;;;;;;;;;;;;;;;5116359;27;20284;-59
2022/11/13 17:23:39;;;;;;;;;;;;;;;;;;5112727;27;20400;-59
2022/11/13 17:26:23;;;;;;;;;;;;;;;;;;5114058;27;20739;-59
2022/11/13 17:29:07;;;;;;;;;;;;;;;;;;5112833;28;19968;-59
2022/11/13 17:31:52;;;;;;;;;;;;;;;;;;5111568;28;20355;-59
2022/11/13 17:34:36;;;;;;;;;;;;;;;;;;5114102;28;19918;-59
2022/11/13 17:37:21;;;;;;;;;;;;;;;;;;5113298;28;19981;-59
2022/11/13 17:40:05;;;;;;;;;;;;;;;;;;5113224;28;19918;-59
2022/11/13 17:42:49;;;;;;;;;;;;;;;;;;5127255;28;19965;-59
2022/11/13 17:45:33;;;;;;;;;;;;;;;;;;5124969;27;20384;-58
2022/11/13 17:48:18;;;;;;;;;;;;;;;;;;5103317;27;19919;-58
2022/11/13 17:51:01;;;;;;;;;;;;;;;;;;5128632;27;19923;-59
2022/11/13 17:53:46;;;;;;;;;;;;;;;;;;5131715;27;20281;-58
2022/11/13 17:56:30;;;;;;;;;;;;;;;;;;5105094;27;20003;-59
2022/11/13 17:59:14;;;;;;;;;;;;;;;;;;5126611;27;19927;-59
2022/11/13 18:01:59;;;;;;;;;;;;;;;;;;5134499;27;19918;-58
2022/11/13 18:04:43;;;;;;;;;;;;;;;;;;5117286;27;19926;-59
2022/11/13 18:07:28;;;;;;;;;;;;;;;;;;5125481;27;19958;-59
2022/11/13 18:10:12;;;;;;;;;;;;;;;;;;5126505;27;19938;-59
2022/11/13 18:12:56;;;;;;;;;;;;;;;;;;5130091;27;19918;-59
2022/11/13 18:15:42;;;;;;;;;;;;;;;;;;5131712;27;20023;-59
2022/11/13 18:18:27;;;;;;;;;;;;;;;;;;5118611;27;19925;-59
2022/11/13 18:21:11;;;;;;;;;;;;;;;;;;5127576;27;19957;-59
2022/11/13 18:23:55;;;;;;;;;;;;;;;;;;5117864;27;19918;-59
2022/11/13 18:26:39;;;;;;;;;;;;;;;;;;5107993;27;19919;-59
2022/11/13 18:29:23;;;;;;;;;;;;;;;;;;5125425;27;20366;-59
2022/11/13 18:32:08;;;;;;;;;;;;;;;;;;5133898;27;19925;-59
2022/11/13 18:34:53;;;;;;;;;;;;;;;;;;5124066;27;20514;-59
2022/11/13 18:37:37;;;;;;;;;;;;;;;;;;5123566;27;20124;-59
2022/11/13 18:40:21;;;;;;;;;;;;;;;;;;5128265;27;20065;-59
2022/11/13 18:43:05;;;;;;;;;;;;;;;;;;5127910;27;20281;-59
2022/11/13 18:45:49;;;;;;;;;;;;;;;;;;5132179;27;20277;-59
2022/11/13 18:48:33;;;;;;;;;;;;;;;;;;5105936;27;19919;-59